Dernières infos :  

11/11/2017  Mise à jour des tableaux d'analyses décadaires : rubrique climatologie
04/11/2017 Mise en ligne de la synthèse climatologique d'Octobre 2017 : 
CLIQUEZ ICI
03/11/2017  Mise à jour des tableaux d'analyses décadaires, mensuelles et annuelles : rubrique climatologie   

Si l'entête du tableau ne s'affiche pas correctement, => actualisez la page (F5 avec Internet Explorer, Chrome...).
Utilisez l'ascenseur sur la droite des lignes du tableau pour faire défiler verticalement les jours du mois.

TABLEAU DES DONNEES COMPLETES NOAA DE FEVRIER 2015

DATE TEMPERATURE
sous abri
TEMPARATURE 
au sol
VENT  et  Indice de Refroidissement Eolien  PRECIPITATIONS (en mm/m2)
et Intensité
PRESSION ATMOSPHERIQUE (en hPa) HUMIDITE de l'AIR RADIATIONS SOLAIRES (en W/m2)
Mini Moy. Maxi Mini Moy. Maxi Moyen Rafale I.R.E.
Minii
Précip. jour Cumul mois Intensité Maxi Mini Moy. Maxi Mini Moy. Maxi Pic maxi du jour Total jour
01/02/2015 0.8° 2.2° 3.6° 1.6° 3.3° 1.3km/h dir NO 24.1km/h dir ONO -0.5° 9.2 9.2 1.6mm/h 991.6 998.1 1004 81% 90.8% 96% 156 7 012
02/02/2015 -0.4° 1.9° 4.6° -2.2° 1.5° 7.2° 0.5km/h dir SE 14.5km/h dir SSE -0.3° 4.6 13.8 2.4mm/h 1003 1005.5 1007 85% 93.4% 96% 515 14 549
03/02/2015 -2.9° -0.8° 0.7° -5.6° -1.6° 1.1° 1km/h dir N 17.7km/h dir N -4.3° 0 13.8 1001.1 1002 1003 90% 94.3% 96% 137 6 854
04/02/2015 -0.9° 0.4° -1.7° 0.2° 6.7° 11.6km/h dir N 48.3km/h dir N -6.1° 0 13.8 1002.3 1006 1010.4 71% 82.2% 92% 552 24 521
05/02/2015 -2° -0.7° 0.8° -3.3° -1.4° 1.1° 17.2km/h dir N 40.2km/h dir N -7.6° 0 13.8 1008.7 1009.7 1010.5 72% 79.9% 84% 276 10 006
06/02/2015 -0.7° 0.6° 1.8° -1.7° 1.7° 11.6km/h dir N 35.4km/h dir NNE -5.1° 0 13.8 1008.9 1010.9 1015.8 70% 76.3% 81% 223 9 618
07/02/2015 -3.7° -0.1° 3.6° -6.1° -0.4° 6.7° 3.5km/h dir NNO 19.3km/h dir NNO -4.8° 0 13.8 1015.8 1022 1026.6 65% 76.3% 89% 455 29 148
08/02/2015 -4.4° 0.1° 4.8° -6.7° -0.7° 6.1° 12.2km/h dir N 49.9km/h dir N -8.1° 0 13.8 1025.7 1026.9 1029.2 73% 82.1% 89% 612 19 834
09/02/2015 -1.2° 2.4° 7.5° -2.8° 2.4° 11.7° 11.6km/h dir N 33.8km/h dir NNE -6.1° 0 13.8 1028.8 1030.1 1032.2 47% 73.3% 86% 555 35 866
10/02/2015 -2.8° 0.2° 3.4° -5.6° -0.7° 0.8km/h dir NNO 16.1km/h dir N -2.8° 0 13.8 1025.7 1027.9 1029.4 76% 87.1% 94% 309 13 092
11/02/2015 -4.9° 1.1° 10.6° -7.2° 0.6° 13.9° 0.3km/h dir S 11.3km/h dir NO -6.3° 0.2 14 1021.7 1023.9 1025.8 59% 84.5% 95% 522 35 868
12/02/2015 -3.6° 4.4° 15.9° -6.1° 3.8° 18.3° 0.3km/h dir S 11.3km/h dir SSO -3.5° 0 14 1019.7 1021.3 1022.6 34% 74.2% 95% 538 37 326
13/02/2015 3.8° 8.7° 12.2° 1.1° 7.9° 16.1° 5.8km/h dir S 45.1km/h dir S 3.8° 0 14 1012.8 1017 1020.6 66% 77.9% 91% 640 26 028
14/02/2015 5.9° 8.1° 10.1° 4.4° 7.3° 11.1° 6.1km/h dir S 41.8km/h dir SSO 4.3° 7 21 40.2mm/h 1006 1008.5 1013.4 78% 86.4% 92% 387 12 690
15/02/2015 6.9° 11.1° 3.9° 6.8° 16.1° 1.4km/h dir SSE 25.7km/h dir SSE 3.7° 8.6 29.6 11.4mm/h 1006.5 1008.9 1014 70% 88.2% 95% 812 24 673
16/02/2015 2.3° 3.6° 5.2° 2.2° 3.4° 1.9km/h dir NNO 19.3km/h dir NNO -0.4° 0 29.6 1014 1018.1 1021.8 95% 95.6% 96% 146 8 111
17/02/2015 2.8° 3.4° 4.2° 2.2° 3.2° 4.8km/h dir N 30.6km/h dir NE -0.9° 0.2 29.8 1021.9 1030.7 1037 85% 90.1% 95% 199 9 844
18/02/2015 2.3° 3.6° 5.2° 1.7° 3.4° 6.1° 1.6km/h dir N 22.5km/h dir NNE 0 29.8 1035.7 1036.5 1037.5 76% 83% 88% 241 13 999
19/02/2015 -0.8° 5.4° 13.1° -3.9° 16.1° 0.8km/h dir SSO 16.1km/h dir SSO -0.8° 0 29.8 1025.3 1031 1036.2 54% 79% 94% 571 41 134
20/02/2015 1.3° 7.9° 13° -2.2° 7.6° 16.7° 11.7km/h dir S 57.9km/h dir S 1.3° 0 29.8 1008.8 1017.9 1025.4 43% 66% 93% 591 42 245
21/02/2015 1.2° 4.2° 8.4° 0.6° 3.5° 7.8° 4.7km/h dir S 45.1km/h dir S 1.2° 24 53.8 23.8mm/h 1001.5 1003.7 1008.6 64% 88.9% 95% 163 8 091
22/02/2015 -1.7° 6.1° -4.4° 2.2° 8.3° 6.1km/h dir NNO 27.4km/h dir NNE -1.7° 0.2 54 1005 1010.1 1012.6 67% 84.8% 96% 606 18 375
23/02/2015 -2° 3.8° 8.3° -4.4° 3.1° 8.9° 2.1km/h dir S 29km/h dir NO -3.6° 3.8 57.8 11.6mm/h 1003.3 1006.4 1010.9 82% 90.4% 95% 301 10 814
24/02/2015 1.6° 4.6° 8.3° 4.1° 13.9° 1km/h dir NO 24.1km/h dir NO 1.6° 2.2 60 13.8mm/h 1006.7 1012.4 1019 67% 86.9% 96% 853 19 809
25/02/2015 0.4° 4.9° 10.1° -2.2° 4.8° 15.6° 1.8km/h dir NNO 22.5km/h dir NO 0.4° 0.2 60.2 1018.5 1020 1021.1 54% 81.9% 96% 661 42 227
26/02/2015 -2.1° 3.8° 9.7° -4.4° 3.3° 11.1° 0.5km/h dir S 16.1km/h dir 0 -2.1° 0.8 61 1013.5 1018.9 1021.6 62% 83.4% 95% 378 21 503
27/02/2015 -0.1° 4.8° 7.3° -3.3° 7.8° 5.6km/h dir NNO 33.8km/h dir 0 18.8 79.8 8mm/h 1009.7 1016.5 1023.1 74% 87.2% 95% 283 11 622
28/02/2015 -2.9° 2.9° 9.8° -6.1° 2.4° 14.4° 1.1km/h dir NO 17.7km/h dir 0 -3.5° 0.2 80 1017.2 1020.7 1023.1 54% 80.9% 96% 636 41 678

RETOUR ACCUEIL


Date de création : 01/03/2015 : 10:04
Dernière modification : 01/04/2015 : 20:05
Catégorie : ARCHIVES 2002 à 2016 - ANNEES 2010 à 2019 - ANNEE 2015 - FEVRIER 2015
Page lue 1885 fois


Réactions à cet article

Personne n'a encore laissé de commentaire.
Soyez donc le premier !